Time;durP1;ratioP1;P1;durP2;ratioP2;P2;SDS_P1;SDS_P2;PMS_P1;PMS_P2;Temp;Humidity;BMP_temperature;BMP_pressure;BME280_temperature;BME280_humidity;BME280_pressure;Samples;Min_cycle;Max_cycle;Signal;HPM_P1;HPM_P2
2022/01/02 00:00:22;;;;;;;0.30;0.30;;;5.70;99.90;;;5.40;100.00;101284.50;5049094;28;20225;-83
2022/01/02 00:02:58;;;;;;;0.10;0.10;;;5.60;99.90;;;5.27;100.00;101275.22;5034254;28;20213;-83
2022/01/02 00:05:32;;;;;;;0.10;0.10;;;5.60;99.90;;;5.21;100.00;101274.94;5018080;28;20233;-83
2022/01/02 00:08:10;;;;;;;0.28;0.28;;;5.60;99.90;;;5.19;100.00;101265.19;5011380;28;20221;-83
2022/01/02 00:10:59;;;;;;;0.10;0.10;;;5.50;99.90;;;5.15;100.00;101248.41;5014676;28;20230;-83
2022/01/02 00:13:34;;;;;;;0.10;0.10;;;5.50;99.90;;;5.19;100.00;101238.97;5017072;28;20209;-83
2022/01/02 00:16:08;;;;;;;0.10;0.10;;;5.50;99.90;;;5.00;100.00;101232.03;5002030;28;20212;-83
2022/01/02 00:18:47;;;;;;;0.10;0.10;;;5.40;99.90;;;4.92;100.00;101234.31;5020212;28;20190;-84
2022/01/02 00:21:18;;;;;;;0.10;0.10;;;5.30;99.90;;;5.00;100.00;101240.78;5014876;28;20233;-83
2022/01/02 00:24:06;;;;;;;0.05;0.05;;;;;;;4.97;100.00;101258.09;5045825;28;20213;-83
2022/01/02 00:26:46;;;;;;;0.10;0.10;;;5.30;99.90;;;5.09;100.00;101259.53;5031927;28;20206;-82
2022/01/02 00:29:23;;;;;;;0.10;0.10;;;5.30;99.90;;;5.08;100.00;101255.13;4996284;28;20217;-82
2022/01/02 00:32:02;;;;;;;0.10;0.10;;;5.30;99.90;;;5.02;100.00;101254.84;5002413;28;20226;-82
2022/01/02 00:34:40;;;;;;;0.30;0.30;;;5.30;99.90;;;5.13;100.00;101264.09;5029087;28;20214;-82
2022/01/02 00:37:08;;;;;;;0.10;0.10;;;5.30;99.90;;;5.17;100.00;101259.88;5033399;28;20209;-83
2022/01/02 00:39:37;;;;;;;0.10;0.10;;;5.40;99.90;;;5.05;100.00;101251.47;5020993;28;20210;-82
2022/01/02 00:42:10;;;;;;;1.27;1.27;;;5.30;99.90;;;4.91;100.00;101232.50;5030336;28;20206;-82
2022/01/02 00:44:49;;;;;;;0.10;0.10;;;5.30;99.90;;;5.05;100.00;101235.75;5043821;28;20202;-82
2022/01/02 00:47:35;;;;;;;0.25;0.25;;;5.30;99.90;;;4.97;100.00;101222.28;5036262;28;20213;-82
2022/01/02 00:51:16;;;;;;;0.10;0.10;;;5.30;99.90;;;4.91;100.00;101208.91;5021067;28;20241;-82
2022/01/02 00:53:48;;;;;;;0.20;0.20;;;5.20;99.90;;;4.76;100.00;101196.03;5032269;28;20218;-83
2022/01/02 00:56:19;;;;;;;0.80;0.80;;;5.20;99.90;;;4.71;100.00;101187.06;5016640;28;20207;-83
2022/01/02 00:58:52;;;;;;;0.10;0.10;;;5.10;99.90;;;4.64;100.00;101163.16;5031796;28;20206;-82
2022/01/02 01:01:33;;;;;;;0.10;0.10;;;5.00;99.90;;;4.57;100.00;101164.59;5032671;28;20249;-83
2022/01/02 01:04:05;;;;;;;0.10;0.10;;;4.90;99.90;;;4.60;100.00;101185.69;5023008;28;20206;-82
2022/01/02 01:06:39;;;;;;;0.10;0.10;;;4.90;99.90;;;4.70;100.00;101201.00;5012551;28;20222;-82
2022/01/02 01:09:06;;;;;;;0.10;0.10;;;4.90;99.90;;;4.73;100.00;101211.63;5016177;28;20206;-82
2022/01/02 01:11:49;;;;;;;0.10;0.10;;;5.00;99.90;;;4.72;100.00;101208.94;5027123;28;20229;-83
2022/01/02 01:15:05;;;;;;;;;;;;;;;;;;;;;
2022/01/02 01:18:39;;;;;;;0.10;0.10;;;5.00;99.90;;;4.90;100.00;101253.41;5040759;28;20198;-84
2022/01/02 01:21:07;;;;;;;0.10;0.10;;;5.00;99.90;;;4.85;100.00;101244.44;4996467;28;20226;-83
2022/01/02 01:24:29;;;;;;;0.22;0.22;;;5.00;99.90;;;4.84;100.00;101254.03;5031408;28;20210;-84
2022/01/02 01:27:06;;;;;;;0.10;0.10;;;5.00;99.90;;;4.81;100.00;101238.16;5032442;28;20213;-82
2022/01/02 01:29:37;;;;;;;0.10;0.10;;;5.00;99.90;;;4.86;100.00;101260.25;5015552;28;20794;-83
2022/01/02 01:32:08;;;;;;;0.10;0.10;;;5.00;99.90;;;4.73;100.00;101257.88;5043896;28;20224;-83
2022/01/02 01:34:36;;;;;;;0.10;0.10;;;5.00;99.90;;;4.75;100.00;101254.50;4995950;28;20226;-83
2022/01/02 01:37:07;;;;;;;0.10;0.10;;;5.00;99.90;;;4.66;100.00;101245.34;5030936;28;20201;-83
2022/01/02 01:39:39;;;;;;;0.10;0.10;;;4.90;99.90;;;4.69;100.00;101250.72;5035969;28;20193;-83
2022/01/02 01:42:10;;;;;;;0.20;0.20;;;5.00;99.90;;;4.58;100.00;101236.22;5028346;28;20205;-83
2022/01/02 01:47:17;;;;;;;0.10;0.10;;;;;;;4.44;100.00;101225.13;5027390;28;20217;-83
2022/01/02 01:49:45;;;;;;;0.10;0.10;;;4.80;99.90;;;4.32;100.00;101209.75;5014255;28;20218;-82
2022/01/02 01:52:15;;;;;;;0.15;0.15;;;4.70;99.90;;;4.31;100.00;101218.44;5012963;28;20669;-82
2022/01/02 01:54:44;;;;;;;0.40;0.40;;;4.60;99.90;;;4.14;100.00;101204.53;5017186;28;20240;-83
2022/01/02 01:57:13;;;;;;;0.10;0.10;;;;;;;4.14;100.00;101209.78;5029841;28;20213;-83
2022/01/02 01:59:41;;;;;;;0.63;0.63;;;4.50;99.90;;;4.12;100.00;101202.69;5046993;28;20218;-83
2022/01/02 02:02:22;;;;;;;0.50;0.50;;;4.50;99.90;;;4.21;100.00;101200.50;5034567;28;20213;-82
2022/01/02 02:04:50;;;;;;;0.10;0.10;;;4.60;99.90;;;4.33;100.00;101205.41;5000192;28;20202;-82
2022/01/02 02:07:28;;;;;;;0.10;0.10;;;4.60;99.90;;;4.35;100.00;101201.13;4992601;28;20206;-82
2022/01/02 02:10:12;;;;;;;0.10;0.10;;;4.60;99.90;;;4.33;100.00;101208.91;5027439;28;20217;-82
2022/01/02 02:12:47;;;;;;;0.10;0.10;;;4.60;99.90;;;4.00;100.00;101178.56;5041237;28;20225;-82
2022/01/02 02:15:17;;;;;;;0.20;0.20;;;4.50;99.90;;;4.09;100.00;101187.72;5029710;28;20711;-82
2022/01/02 02:17:50;;;;;;;0.20;0.20;;;4.50;99.90;;;4.11;100.00;101190.41;5004818;28;20198;-83
2022/01/02 02:20:25;;;;;;;0.10;0.10;;;3.90;99.90;;;3.99;100.00;101180.28;5044624;28;20220;-82
2022/01/02 02:22:55;;;;;;;0.10;0.10;;;4.40;99.90;;;4.01;100.00;101176.00;4998007;28;20295;-83
2022/01/02 02:25:33;;;;;;;0.10;0.10;;;4.40;99.90;;;4.02;100.00;101176.91;5034235;28;20214;-83
2022/01/02 02:28:07;;;;;;;0.10;0.10;;;4.30;99.90;;;3.94;100.00;101163.47;5012029;28;20206;-83
2022/01/02 02:34:54;;;;;;;0.20;0.20;;;4.30;99.90;;;4.06;100.00;101157.91;4982411;28;20211;-82
2022/01/02 02:39:59;;;;;;;;;;;;;;;;;;;;;
2022/01/02 02:53:09;;;;;;;0.10;0.10;;;3.60;99.90;;;3.60;100.00;101113.84;4817781;29;20232;-82
2022/01/02 02:56:12;;;;;;;0.10;0.10;;;4.00;99.90;;;3.75;100.00;101117.19;4901425;29;20626;-82
2022/01/02 02:59:33;;;;;;;;;;;;;;;;;;;;;
2022/01/02 03:07:09;;;;;;;0.10;0.10;;;4.30;99.90;;;3.87;100.00;101114.25;4988010;28;20209;-82
2022/01/02 03:10:39;;;;;;;0.13;0.13;;;3.70;99.90;;;3.68;100.00;101090.66;5002672;28;20208;-83
2022/01/02 03:15:20;;;;;;;0.10;0.10;;;4.00;99.90;;;3.63;100.00;101082.59;4973021;28;20216;-82
2022/01/02 03:18:59;;;;;;;0.10;0.10;;;3.10;99.90;;;3.61;100.00;101084.25;4970218;28;20196;-82
2022/01/02 03:22:40;;;;;;;0.35;0.35;;;3.90;99.90;;;3.54;100.00;101072.59;4982677;28;20239;-82
2022/01/02 03:25:49;;;;;;;0.17;0.17;;;3.90;99.90;;;3.51;100.00;101068.94;4957465;28;20211;-82
2022/01/02 03:28:59;;;;;;;0.10;0.10;;;3.80;99.90;;;3.56;100.00;101070.06;4958013;28;20216;-82
2022/01/02 03:31:42;;;;;;;0.10;0.10;;;3.80;99.90;;;3.55;100.00;101076.13;4970904;28;20232;-82
2022/01/02 03:34:40;;;;;;;0.10;0.10;;;3.90;99.90;;;3.62;100.00;101093.88;4965553;28;20223;-82
2022/01/02 03:40:36;;;;;;;0.17;0.17;;;3.80;99.90;;;3.67;100.00;101076.69;4957822;28;20228;-82
2022/01/02 03:44:06;;;;;;;;;;;;;;;;;;;;;
2022/01/02 03:47:07;;;;;;;0.10;0.10;;;4.30;99.90;;;3.44;100.00;101062.53;4978425;28;20216;-82
2022/01/02 03:49:45;;;;;;;0.10;0.10;;;3.80;99.90;;;3.33;100.00;101058.50;4971478;28;20661;-82
2022/01/02 03:52:22;;;;;;;0.10;0.10;;;3.70;99.90;;;3.25;100.00;101056.34;4972467;28;20224;-83
2022/01/02 03:54:53;;;;;;;0.10;0.10;;;3.20;99.90;;;3.25;100.00;101054.63;4956397;28;20216;-82
2022/01/02 03:57:31;;;;;;;0.10;0.10;;;3.70;99.90;;;3.38;100.00;101077.94;4988730;28;20209;-82
2022/01/02 04:00:11;;;;;;;0.10;0.10;;;3.70;99.90;;;3.42;100.00;101082.47;4990894;28;20209;-82
2022/01/02 04:02:59;;;;;;;0.15;0.15;;;3.70;99.90;;;3.46;100.00;101097.50;4979227;28;20224;-82
2022/01/02 04:05:39;;;;;;;0.10;0.10;;;3.40;99.90;;;3.49;100.00;101096.75;4976662;28;20213;-82
2022/01/02 04:08:10;;;;;;;0.10;0.10;;;3.80;99.90;;;3.54;100.00;101103.09;4973643;28;20212;-83
2022/01/02 04:10:48;;;;;;;0.10;0.10;;;3.80;99.90;;;3.59;100.00;101098.06;4963158;28;20239;-82
2022/01/02 04:13:56;;;;;;;0.10;0.10;;;3.80;99.90;;;3.65;100.00;101100.97;4972775;28;20208;-82
2022/01/02 04:16:46;;;;;;;0.10;0.10;;;;;;;3.70;100.00;101102.09;4960983;28;20225;-82
2022/01/02 04:19:27;;;;;;;0.10;0.10;;;3.90;99.90;;;3.71;100.00;101090.81;4970282;28;20223;-82
2022/01/02 04:22:42;;;;;;;0.10;0.10;;;4.00;99.90;;;3.72;100.00;101106.56;4970943;28;20326;-82
2022/01/02 04:25:21;;;;;;;0.20;0.20;;;4.00;99.90;;;3.76;100.00;101110.22;4959369;28;20231;-82
2022/01/02 04:28:08;;;;;;;0.10;0.10;;;3.60;99.90;;;3.80;100.00;101120.00;4970708;28;20216;-82
2022/01/02 04:31:40;;;;;;;0.20;0.20;;;4.00;99.90;;;3.88;100.00;101116.03;4965072;28;20228;-82
2022/01/02 04:35:37;;;;;;;0.10;0.10;;;4.00;99.90;;;3.90;100.00;101103.94;4963738;28;20211;-82
2022/01/02 04:39:42;;;;;;;0.20;0.20;;;4.50;99.90;;;3.92;100.00;101107.53;4967362;28;20213;-82
2022/01/02 04:43:10;;;;;;;0.10;0.10;;;3.70;99.90;;;3.99;100.00;101120.06;4980636;28;20227;-82
2022/01/02 04:51:03;;;;;;;0.10;0.10;;;4.10;99.90;;;3.96;100.00;101093.75;4978929;28;20634;-82
2022/01/02 04:54:02;;;;;;;0.20;0.20;;;4.30;99.90;;;3.97;100.00;101095.56;4952402;28;20352;-83
2022/01/02 04:57:03;;;;;;;0.10;0.10;;;4.30;99.90;;;3.97;100.00;101094.66;4937029;28;20226;-82
2022/01/02 05:00:32;;;;;;;0.20;0.20;;;4.40;99.90;;;3.95;100.00;101086.75;4979688;28;20205;-82
2022/01/02 05:03:39;;;;;;;1.20;1.20;;;3.80;99.90;;;3.89;100.00;101109.97;4987262;28;20219;-83
2022/01/02 05:06:39;;;;;;;0.10;0.10;;;4.20;99.90;;;3.88;100.00;101116.03;4984511;28;20211;-83
2022/01/02 05:09:23;;;;;;;0.10;0.10;;;4.10;99.90;;;3.96;100.00;101127.78;4966798;28;20201;-82
2022/01/02 05:12:29;;;;;;;0.10;0.10;;;4.20;99.90;;;4.01;100.00;101136.75;4974238;28;20220;-82
2022/01/02 05:15:19;;;;;;;0.10;0.10;;;4.20;99.90;;;3.96;100.00;101130.41;4980639;28;20204;-82
2022/01/02 05:18:25;;;;;;;0.10;0.10;;;4.20;99.90;;;3.88;100.00;101134.34;4972258;28;20205;-82
2022/01/02 05:20:58;;;;;;;0.10;0.10;;;3.80;99.90;;;3.88;100.00;101130.84;4964208;28;20232;-82
2022/01/02 05:23:29;;;;;;;0.10;0.10;;;3.60;99.90;;;3.88;100.00;101134.34;4969187;28;20196;-82
2022/01/02 05:25:58;;;;;;;0.20;0.20;;;4.20;99.90;;;3.94;100.00;101132.06;4961656;28;20562;-82
2022/01/02 05:28:29;;;;;;;0.10;0.10;;;4.20;99.90;;;3.99;100.00;101132.25;4960560;28;20224;-82
2022/01/02 05:30:58;;;;;;;0.10;0.10;;;4.20;99.90;;;4.02;100.00;101116.69;4933307;28;20545;-82
2022/01/02 05:33:43;;;;;;;0.30;0.30;;;4.30;99.90;;;4.00;100.00;101105.28;4978227;28;20208;-82
2022/01/02 05:36:11;;;;;;;0.20;0.20;;;4.20;99.90;;;4.03;100.00;101113.25;4948379;28;20235;-82
2022/01/02 05:38:42;;;;;;;0.90;0.90;;;4.30;99.90;;;4.04;100.00;101109.81;4948994;28;20205;-82
2022/01/02 05:41:40;;;;;;;0.13;0.13;;;4.30;99.90;;;4.00;100.00;101102.66;4981365;28;20220;-82
2022/01/02 05:44:13;;;;;;;0.00;0.00;;;4.40;99.90;;;3.94;100.00;101098.03;4947976;28;20196;-82
2022/01/02 05:46:44;;;;;;;0.10;0.10;;;4.20;99.90;;;3.99;100.00;101100.84;4963789;28;20209;-82
2022/01/02 05:49:14;;;;;;;0.10;0.10;;;4.60;99.90;;;3.96;100.00;101106.84;4965172;28;20597;-82
2022/01/02 05:51:46;;;;;;;0.10;0.10;;;4.30;99.90;;;3.96;100.00;101109.47;4962490;28;20617;-82
2022/01/02 05:54:21;;;;;;;0.85;0.85;;;4.30;99.90;;;3.90;100.00;101096.09;4962597;28;20208;-82
2022/01/02 05:56:54;;;;;;;0.15;0.15;;;4.30;99.90;;;3.86;100.00;101099.38;4959783;28;20224;-82
2022/01/02 05:59:44;;;;;;;0.30;0.30;;;4.30;99.90;;;3.86;100.00;101104.59;4978449;28;20204;-82
2022/01/02 06:02:39;;;;;;;0.10;0.10;;;4.30;99.90;;;3.88;100.00;101120.38;4962270;28;20224;-82
2022/01/02 06:05:14;;;;;;;0.10;0.10;;;4.30;99.90;;;3.88;100.00;101120.38;4974905;28;20208;-82
2022/01/02 06:07:56;;;;;;;0.10;0.10;;;4.20;99.90;;;3.93;100.00;101117.19;4960571;28;20209;-82
2022/01/02 06:10:51;;;;;;;0.10;0.10;;;4.20;99.90;;;3.94;100.00;101113.75;4992194;28;20224;-82
2022/01/02 06:13:31;;;;;;;0.13;0.13;;;4.30;99.90;;;4.01;100.00;101107.06;4989175;28;20215;-80
2022/01/02 06:16:08;;;;;;;0.10;0.10;;;4.30;99.90;;;4.08;100.00;101107.41;4944775;28;20217;-81
2022/01/02 06:18:36;;;;;;;0.10;0.10;;;4.30;99.90;;;4.10;100.00;101121.47;4976418;28;20217;-81
2022/01/02 06:21:34;;;;;;;0.10;0.10;;;4.40;99.90;;;4.06;100.00;101123.88;4980501;28;20223;-82
2022/01/02 06:24:24;;;;;;;0.10;0.10;;;4.30;99.90;;;4.04;100.00;101130.75;4956367;28;20208;-82
2022/01/02 06:26:57;;;;;;;0.10;0.10;;;4.30;99.90;;;4.06;100.00;101126.50;4971191;28;20213;-82
2022/01/02 06:29:28;;;;;;;0.10;0.10;;;4.30;99.90;;;4.11;100.00;101128.50;4960486;28;20205;-81
2022/01/02 06:32:00;;;;;;;0.10;0.10;;;4.40;99.90;;;4.08;100.00;101119.59;4987665;28;20232;-82
2022/01/02 06:34:31;;;;;;;0.10;0.10;;;4.40;99.90;;;4.10;100.00;101110.09;4923852;28;20208;-82
2022/01/02 06:37:13;;;;;;;0.30;0.30;;;4.40;99.90;;;4.08;100.00;101107.41;4960470;28;20225;-82
2022/01/02 06:39:50;;;;;;;0.10;0.10;;;4.40;99.90;;;3.99;100.00;101088.66;4947680;28;20201;-82
2022/01/02 06:42:18;;;;;;;0.10;0.10;;;4.40;99.90;;;4.03;100.00;101093.22;4969786;28;20248;-82
2022/01/02 06:44:46;;;;;;;1.30;1.30;;;4.40;99.90;;;4.06;100.00;101108.16;4976212;28;20201;-82
2022/01/02 06:47:15;;;;;;;0.10;0.10;;;4.40;99.90;;;4.03;100.00;101098.44;4979887;28;20232;-82
2022/01/02 06:49:43;;;;;;;0.03;0.03;;;4.40;99.90;;;4.02;100.00;101094.03;4977133;28;20212;-82
2022/01/02 06:52:11;;;;;;;0.10;0.10;;;4.30;99.90;;;4.03;100.00;101106.31;4942380;28;20236;-82
2022/01/02 06:54:40;;;;;;;0.10;0.10;;;4.40;99.90;;;4.06;100.00;101100.31;4977841;28;20204;-82
2022/01/02 06:57:08;;;;;;;0.10;0.10;;;4.40;99.90;;;4.02;100.00;101101.91;4996486;28;20228;-82
2022/01/02 06:59:36;;;;;;;0.10;0.10;;;4.40;99.90;;;4.05;100.00;101107.28;4957206;28;20201;-82
2022/01/02 07:02:05;;;;;;;0.10;0.10;;;4.40;99.90;;;4.00;100.00;101105.28;4960452;28;20589;-82
2022/01/02 07:04:33;;;;;;;0.10;0.10;;;4.40;99.90;;;4.03;100.00;101102.78;4984007;28;20205;-82
2022/01/02 07:07:02;;;;;;;0.10;0.10;;;4.30;99.90;;;4.07;100.00;101104.72;4979867;28;20220;-82
2022/01/02 07:09:31;;;;;;;0.10;0.10;;;4.40;99.90;;;4.15;100.00;101116.44;4981350;28;20208;-82
2022/01/02 07:12:00;;;;;;;0.10;0.10;;;4.40;99.90;;;4.13;100.00;101116.38;4962294;28;20233;-82
2022/01/02 07:14:30;;;;;;;0.10;0.10;;;4.40;99.90;;;4.18;100.00;101114.84;4960932;28;20216;-82
2022/01/02 07:16:59;;;;;;;0.00;0.00;;;4.50;99.90;;;4.18;100.00;101109.63;4974286;28;20700;-83
2022/01/02 07:19:27;;;;;;;0.22;0.22;;;4.50;99.90;;;4.12;100.00;101098.88;4946587;28;20207;-83
2022/01/02 07:21:58;;;;;;;0.10;0.10;;;4.80;99.90;;;4.12;100.00;101106.72;4979544;28;20221;-83
2022/01/02 07:24:26;;;;;;;0.10;0.10;;;4.50;99.90;;;4.11;100.00;101104.94;4964113;28;20209;-82
2022/01/02 07:26:54;;;;;;;0.10;0.10;;;4.50;99.90;;;4.10;100.00;101100.53;4980569;28;20225;-84
2022/01/02 07:29:22;;;;;;;0.10;0.10;;;4.50;99.90;;;4.15;100.00;101101.63;4962133;28;20223;-83
2022/01/02 07:31:50;;;;;;;0.10;0.10;;;4.50;99.90;;;4.16;100.00;101092.94;4958259;28;20225;-82
2022/01/02 07:34:18;;;;;;;0.10;0.10;;;4.50;99.90;;;4.18;100.00;101088.69;4975654;28;20224;-82
2022/01/02 07:36:46;;;;;;;0.10;0.10;;;4.50;99.90;;;4.19;100.00;101073.88;4975273;28;20220;-82
2022/01/02 07:39:15;;;;;;;0.10;0.10;;;4.50;99.90;;;4.20;100.00;101080.91;4958966;28;20223;-82
2022/01/02 07:41:43;;;;;;;0.10;0.10;;;4.50;99.90;;;4.27;100.00;101085.56;4974723;28;20706;-82
2022/01/02 07:44:11;;;;;;;0.10;0.10;;;4.50;99.90;;;4.27;100.00;101084.69;4955827;28;20217;-82
2022/01/02 07:46:39;;;;;;;0.10;0.10;;;4.60;99.90;;;4.28;100.00;101092.59;4924360;28;20700;-82
2022/01/02 07:49:07;;;;;;;0.10;0.10;;;4.50;99.90;;;4.30;100.00;101095.28;4970623;28;20223;-82
2022/01/02 07:51:35;;;;;;;0.10;0.10;;;4.60;99.90;;;4.34;100.00;101099.84;4955361;28;20229;-83
2022/01/02 07:54:03;;;;;;;0.10;0.10;;;4.60;99.90;;;4.36;100.00;101092.94;4987512;28;20211;-82
2022/01/02 07:56:31;;;;;;;0.10;0.10;;;4.60;99.90;;;4.37;100.00;101097.34;4991325;28;20196;-82
2022/01/02 07:58:59;;;;;;;0.10;0.10;;;4.60;99.90;;;4.36;100.00;101111.28;4958810;28;20224;-82
2022/01/02 08:01:27;;;;;;;0.10;0.10;;;4.60;99.90;;;4.38;100.00;101104.38;4971306;28;20224;-82
2022/01/02 08:03:55;;;;;;;0.10;0.10;;;4.60;99.90;;;4.43;100.00;101095.91;4939392;28;20212;-82
2022/01/02 08:06:23;;;;;;;0.10;0.10;;;4.70;99.90;;;4.45;100.00;101090.72;4939990;28;20212;-82
2022/01/02 08:08:51;;;;;;;0.30;0.30;;;4.70;99.90;;;4.46;100.00;101096.03;4958314;28;20215;-82
2022/01/02 08:11:23;;;;;;;0.20;0.20;;;4.70;99.90;;;4.48;100.00;101098.72;4959603;28;20235;-82
2022/01/02 08:14:12;;;;;;;0.10;0.10;;;4.70;99.90;;;4.53;100.00;101093.69;4990270;28;20213;-82
2022/01/02 08:16:40;;;;;;;0.20;0.20;;;4.80;99.90;;;4.62;100.00;101100.22;4974636;28;20667;-82
2022/01/02 08:19:08;;;;;;;0.10;0.10;;;4.80;99.90;;;4.63;100.00;101108.97;4939638;28;20224;-82
2022/01/02 08:21:36;;;;;;;0.10;0.10;;;4.90;99.90;;;4.64;100.00;101109.03;4939774;28;20232;-82
2022/01/02 08:24:04;;;;;;;0.10;0.10;;;4.90;99.90;;;4.72;100.00;101104.13;4970353;28;20207;-83
2022/01/02 08:26:33;;;;;;;0.20;0.20;;;4.90;99.90;;;4.72;100.00;101098.88;4959057;28;20220;-83
2022/01/02 08:29:00;;;;;;;0.10;0.10;;;5.00;99.90;;;4.81;100.00;101101.91;4965875;28;20220;-82
2022/01/02 08:34:19;;;;;;;0.10;0.10;;;5.10;99.90;;;4.93;100.00;101102.41;5053008;28;20206;-83
2022/01/02 08:36:48;;;;;;;0.05;0.05;;;5.10;99.90;;;4.93;100.00;101105.03;5038038;28;20645;-83
2022/01/02 08:39:15;;;;;;;0.10;0.10;;;5.20;99.90;;;4.94;100.00;101098.06;5017257;28;20234;-83
2022/01/02 08:41:43;;;;;;;0.15;0.15;;;5.20;99.90;;;4.92;100.00;101086.63;4968415;28;20203;-83
2022/01/02 08:44:11;;;;;;;0.10;0.10;;;5.20;99.90;;;4.91;100.00;101104.09;4984798;28;20195;-83
2022/01/02 08:46:40;;;;;;;0.00;0.00;;;5.20;99.90;;;4.97;100.00;101114.81;5001399;28;20203;-83
2022/01/02 08:49:08;;;;;;;0.10;0.10;;;5.20;99.90;;;5.01;100.00;101116.75;4985324;28;20227;-84
2022/01/02 08:51:36;;;;;;;0.10;0.10;;;5.20;99.90;;;5.09;100.00;101104.84;5013672;28;20203;-83
2022/01/02 08:54:05;;;;;;;0.10;0.10;;;5.30;99.90;;;5.15;100.00;101109.47;4966302;28;20208;-84
2022/01/02 08:56:33;;;;;;;0.10;0.10;;;5.30;99.90;;;5.18;100.00;101112.22;4982765;28;20216;-86
2022/01/02 08:59:01;;;;;;;0.20;0.20;;;5.40;99.90;;;5.24;100.00;101115.13;5017104;28;20235;-84
2022/01/02 09:01:29;;;;;;;0.10;0.10;;;5.40;99.90;;;5.28;100.00;101116.13;5001461;28;20199;-83
2022/01/02 09:03:57;;;;;;;0.10;0.10;;;5.50;99.90;;;5.30;100.00;101138.97;4985190;28;20199;-83
2022/01/02 09:06:26;;;;;;;0.10;0.10;;;5.50;99.90;;;5.22;100.00;101124.66;4984321;28;20738;-84
2022/01/02 09:08:55;;;;;;;0.10;0.10;;;5.50;99.90;;;5.17;100.00;101110.41;5017380;28;20231;-86
2022/01/02 09:11:23;;;;;;;0.10;0.10;;;5.50;99.90;;;5.13;100.00;101116.38;5000926;28;20215;-83
2022/01/02 09:13:51;;;;;;;0.10;0.10;;;5.20;99.90;;;5.14;100.00;101099.81;4984511;28;20211;-83
2022/01/02 09:16:19;;;;;;;0.10;0.10;;;5.50;99.90;;;5.20;100.00;101094.84;4984350;28;20671;-83
2022/01/02 09:18:47;;;;;;;0.00;0.00;;;5.50;99.90;;;5.20;100.00;101086.97;4984137;28;20234;-83
2022/01/02 09:21:15;;;;;;;0.10;0.10;;;5.60;99.90;;;5.30;100.00;101085.63;5000905;28;20203;-83
2022/01/02 09:23:43;;;;;;;0.30;0.30;;;5.60;99.90;;;5.40;100.00;101099.16;5016391;28;20203;-83
2022/01/02 09:26:12;;;;;;;1.10;1.10;;;5.60;99.90;;;5.48;100.00;101112.59;4999846;28;20200;-84
2022/01/02 09:28:40;;;;;;;0.10;0.10;;;5.70;99.90;;;5.54;100.00;101102.34;5013134;28;20232;-83
2022/01/02 09:31:08;;;;;;;0.10;0.10;;;5.70;99.90;;;5.60;100.00;101099.06;4980335;28;20211;-83
2022/01/02 09:33:37;;;;;;;0.22;0.22;;;5.70;99.90;;;5.65;100.00;101105.38;4983891;28;20222;-84
2022/01/02 09:36:05;;;;;;;0.10;0.10;;;5.80;99.90;;;5.70;100.00;101106.47;4968617;28;20663;-83
2022/01/02 09:38:33;;;;;;;0.10;0.10;;;5.90;99.90;;;5.74;100.00;101105.75;4968124;28;20227;-85
2022/01/02 09:41:01;;;;;;;0.10;0.10;;;5.90;99.90;;;5.73;100.00;101091.72;4984444;28;20206;-85
2022/01/02 09:43:29;;;;;;;0.10;0.10;;;6.00;99.90;;;5.82;100.00;101109.56;4983962;28;20210;-84
2022/01/02 09:45:59;;;;;;;0.00;0.00;;;6.00;99.90;;;5.93;100.00;101123.13;4984334;28;20207;-84
2022/01/02 09:48:28;;;;;;;0.10;0.10;;;6.10;99.90;;;5.97;100.00;101133.81;4968272;28;20227;-84
2022/01/02 09:50:57;;;;;;;0.10;0.10;;;6.10;99.90;;;5.99;100.00;101136.50;4983428;28;20204;-84
2022/01/02 09:53:25;;;;;;;0.10;0.10;;;6.20;99.90;;;6.06;100.00;101147.28;4999917;28;20222;-83
2022/01/02 09:55:55;;;;;;;0.20;0.20;;;6.20;99.90;;;6.18;100.00;101146.88;4984891;28;20237;-83
2022/01/02 09:58:23;;;;;;;0.43;0.43;;;6.30;99.90;;;6.27;100.00;101155.09;4983603;28;20255;-83
2022/01/02 10:00:53;;;;;;;0.10;0.10;;;6.30;99.90;;;6.33;100.00;101136.03;4998266;28;20227;-84
2022/01/02 10:03:21;;;;;;;0.10;0.10;;;6.50;99.90;;;6.47;100.00;101147.97;4984255;28;20203;-87
2022/01/02 10:05:59;;;;;;;0.20;0.20;;;6.60;99.90;;;6.64;100.00;101127.59;4995924;28;20203;-86
2022/01/02 10:08:36;;;;;;;0.30;0.30;;;6.60;99.90;;;6.99;100.00;101120.94;4995933;28;20242;-86
2022/01/02 10:11:15;;;;;;;0.10;0.10;;;6.80;99.90;;;7.14;100.00;101104.78;4969102;28;20218;-87
2022/01/02 10:13:56;;;;;;;0.00;0.00;;;6.90;99.90;;;7.20;100.00;101079.56;5016856;28;20218;-87
2022/01/02 10:16:41;;;;;;;0.10;0.10;;;7.00;99.90;;;7.37;100.00;101070.47;4979888;28;20714;-87
2022/01/02 10:19:35;;;;;;;0.10;0.10;;;7.20;99.90;;;7.59;100.00;101048.34;5007622;28;20223;-86
2022/01/02 10:22:06;;;;;;;0.10;0.10;;;7.30;99.90;;;7.78;100.00;101030.47;4954672;28;20680;-86
2022/01/02 10:24:42;;;;;;;0.35;0.35;;;7.40;99.90;;;7.85;100.00;101001.78;4961881;28;20211;-86
2022/01/02 10:27:19;;;;;;;0.10;0.10;;;7.50;99.90;;;8.00;100.00;100974.97;4985020;28;20199;-86
2022/01/02 10:30:01;;;;;;;0.10;0.10;;;7.70;99.90;;;7.97;100.00;100946.81;5002139;28;20227;-88
2022/01/02 10:32:38;;;;;;;0.10;0.10;;;7.70;99.90;;;7.97;100.00;100938.03;4989412;28;20219;-88
2022/01/02 10:35:18;;;;;;;0.10;0.10;;;7.90;99.90;;;7.77;100.00;100903.22;5002256;28;20199;-86
2022/01/02 10:38:01;;;;;;;0.10;0.10;;;7.90;99.90;;;7.68;100.00;100911.75;4987311;28;20215;-86
2022/01/02 10:40:34;;;;;;;0.08;0.08;;;7.90;99.90;;;7.61;100.00;100898.38;4974225;28;20215;-86
2022/01/02 10:43:22;;;;;;;0.10;0.10;;;7.80;99.90;;;7.62;100.00;100900.16;5012786;28;20196;-86
2022/01/02 10:45:51;;;;;;;0.10;0.10;;;7.80;99.90;;;7.63;100.00;100888.78;5003641;28;20210;-86
2022/01/02 10:48:34;;;;;;;0.10;0.10;;;7.90;99.90;;;7.76;100.00;100901.44;5003147;28;20227;-86
2022/01/02 10:51:02;;;;;;;0.10;0.10;;;7.90;99.90;;;7.88;100.00;100887.72;4995552;28;20206;-86
2022/01/02 10:53:33;;;;;;;0.10;0.10;;;8.00;99.90;;;8.04;100.00;100911.00;4990115;28;20199;-87
2022/01/02 10:56:04;;;;;;;0.00;0.00;;;8.10;99.90;;;8.17;100.00;100913.09;5001917;28;20200;-86
2022/01/02 10:58:36;;;;;;;0.10;0.10;;;8.20;99.90;;;8.47;100.00;100920.03;4985965;28;20223;-86
2022/01/02 11:01:07;;;;;;;0.00;0.00;;;8.20;99.90;;;8.64;100.00;100901.16;5020752;28;20209;-85
2022/01/02 11:03:35;;;;;;;0.00;0.00;;;8.30;99.90;;;8.83;100.00;100880.50;5010251;28;20210;-85
2022/01/02 11:06:09;;;;;;;0.00;0.00;;;8.50;99.90;;;8.79;100.00;100849.63;4996758;28;20203;-85
2022/01/02 11:09:00;;;;;;;0.10;0.10;;;8.60;99.90;;;9.00;100.00;100831.66;5003819;28;20239;-87
2022/01/02 11:11:28;;;;;;;0.10;0.10;;;8.70;99.90;;;9.12;100.00;100808.19;4995523;28;20211;-86
2022/01/02 11:13:57;;;;;;;0.00;0.00;;;8.80;99.90;;;9.20;100.00;100805.72;4993178;28;20211;-85
2022/01/02 11:16:26;;;;;;;0.00;0.00;;;8.90;99.90;;;9.18;100.00;100797.75;4977885;28;20555;-86
2022/01/02 11:18:55;;;;;;;0.10;0.10;;;9.00;99.90;;;9.25;100.00;100794.38;4979275;28;20228;-86
2022/01/02 11:21:30;;;;;;;0.10;0.10;;;9.10;99.90;;;9.32;100.00;100776.03;4986518;28;20199;-85
2022/01/02 11:24:11;;;;;;;0.00;0.00;;;9.10;99.90;;;9.39;100.00;100804.31;5013113;28;20199;-85
2022/01/02 11:27:10;;;;;;;0.00;0.00;;;9.20;99.90;;;9.51;100.00;100778.16;4961546;28;20199;-86
2022/01/02 11:29:39;;;;;;;0.00;0.00;;;9.20;99.90;;;9.58;100.00;100753.66;5025404;28;20236;-85
2022/01/02 11:32:26;;;;;;;0.00;0.00;;;9.40;99.90;;;10.00;100.00;100735.00;4995701;28;20203;-85
2022/01/02 11:34:56;;;;;;;0.40;0.40;;;9.50;99.90;;;10.19;100.00;100696.53;4996353;28;20203;-85
2022/01/02 11:37:28;;;;;;;0.00;0.00;;;9.70;99.90;;;10.25;100.00;100668.47;4985204;28;20215;-86
2022/01/02 11:40:03;;;;;;;0.00;0.00;;;9.90;99.90;;;10.25;100.00;100641.16;4981125;28;20230;-85
2022/01/02 11:42:41;;;;;;;0.00;0.00;;;10.00;99.90;;;10.31;100.00;100604.22;5008980;28;20215;-85
2022/01/02 11:45:33;;;;;;;0.20;0.20;;;10.10;99.90;;;10.30;100.00;100589.25;5012371;28;20198;-85
2022/01/02 11:48:28;;;;;;;0.10;0.10;;;10.20;99.90;;;10.47;100.00;100573.63;5007427;28;20234;-85
2022/01/02 11:50:59;;;;;;;0.10;0.10;;;10.20;99.90;;;10.55;100.00;100570.19;4980036;28;20234;-86